sensor_id;sensor_type;location;lat;lon;timestamp;temperature;humidity
39099;DHT22;24844;52.380;7.018;2022-09-25T00:01:09;12.20;99.90
39099;DHT22;24844;52.380;7.018;2022-09-25T00:03:35;12.10;99.90
39099;DHT22;24844;52.380;7.018;2022-09-25T00:06:21;12.10;99.90
39099;DHT22;24844;52.380;7.018;2022-09-25T00:08:48;12.10;99.90
39099;DHT22;24844;52.380;7.018;2022-09-25T00:11:19;11.90;99.90
39099;DHT22;24844;52.380;7.018;2022-09-25T00:13:45;11.80;99.90
39099;DHT22;24844;52.380;7.018;2022-09-25T00:16:14;11.80;99.90
39099;DHT22;24844;52.380;7.018;2022-09-25T00:18:40;11.70;99.90
39099;DHT22;24844;52.380;7.018;2022-09-25T00:21:24;11.60;99.90
39099;DHT22;24844;52.380;7.018;2022-09-25T00:23:53;11.50;99.90
39099;DHT22;24844;52.380;7.018;2022-09-25T00:26:19;11.40;99.90
39099;DHT22;24844;52.380;7.018;2022-09-25T00:28:45;11.30;99.90
39099;DHT22;24844;52.380;7.018;2022-09-25T00:31:11;11.30;99.90
39099;DHT22;24844;52.380;7.018;2022-09-25T00:33:42;11.30;99.90
39099;DHT22;24844;52.380;7.018;2022-09-25T00:36:09;11.20;99.90
39099;DHT22;24844;52.380;7.018;2022-09-25T00:38:36;11.10;99.90
39099;DHT22;24844;52.380;7.018;2022-09-25T00:41:03;11.00;99.90
39099;DHT22;24844;52.380;7.018;2022-09-25T00:43:35;10.90;99.90
39099;DHT22;24844;52.380;7.018;2022-09-25T00:46:08;10.90;99.90
39099;DHT22;24844;52.380;7.018;2022-09-25T00:48:35;10.80;99.90
39099;DHT22;24844;52.380;7.018;2022-09-25T00:51:01;10.70;99.90
39099;DHT22;24844;52.380;7.018;2022-09-25T00:53:30;10.70;99.90
39099;DHT22;24844;52.380;7.018;2022-09-25T00:55:58;10.60;99.90
39099;DHT22;24844;52.380;7.018;2022-09-25T00:58:26;10.60;99.90
39099;DHT22;24844;52.380;7.018;2022-09-25T01:00:53;10.40;99.90
39099;DHT22;24844;52.380;7.018;2022-09-25T01:03:19;10.40;99.90
39099;DHT22;24844;52.380;7.018;2022-09-25T01:05:46;10.30;99.90
39099;DHT22;24844;52.380;7.018;2022-09-25T01:08:17;10.30;99.90
39099;DHT22;24844;52.380;7.018;2022-09-25T01:10:44;10.30;99.90
39099;DHT22;24844;52.380;7.018;2022-09-25T01:13:10;10.30;99.90
39099;DHT22;24844;52.380;7.018;2022-09-25T01:15:48;10.20;99.90
39099;DHT22;24844;52.380;7.018;2022-09-25T01:18:41;10.10;99.90
39099;DHT22;24844;52.380;7.018;2022-09-25T01:21:47;10.10;99.90
39099;DHT22;24844;52.380;7.018;2022-09-25T01:24:23;10.00;99.90
39099;DHT22;24844;52.380;7.018;2022-09-25T01:29:48;9.80;99.90
39099;DHT22;24844;52.380;7.018;2022-09-25T01:32:38;9.70;99.90
39099;DHT22;24844;52.380;7.018;2022-09-25T01:35:25;9.70;99.90
39099;DHT22;24844;52.380;7.018;2022-09-25T01:37:56;9.70;99.90
39099;DHT22;24844;52.380;7.018;2022-09-25T01:45:48;9.60;99.90
39099;DHT22;24844;52.380;7.018;2022-09-25T01:48:18;9.60;99.90
39099;DHT22;24844;52.380;7.018;2022-09-25T01:53:34;9.50;99.90
39099;DHT22;24844;52.380;7.018;2022-09-25T01:56:07;9.50;99.90
39099;DHT22;24844;52.380;7.018;2022-09-25T01:58:45;9.50;99.90
39099;DHT22;24844;52.380;7.018;2022-09-25T02:01:21;9.50;99.90
39099;DHT22;24844;52.380;7.018;2022-09-25T02:03:55;9.40;99.90
39099;DHT22;24844;52.380;7.018;2022-09-25T02:06:22;9.40;99.90
39099;DHT22;24844;52.380;7.018;2022-09-25T02:08:56;9.40;99.90
39099;DHT22;24844;52.380;7.018;2022-09-25T02:11:27;9.40;99.90
39099;DHT22;24844;52.380;7.018;2022-09-25T02:14:02;9.40;99.90
39099;DHT22;24844;52.380;7.018;2022-09-25T02:16:37;9.30;99.90
39099;DHT22;24844;52.380;7.018;2022-09-25T02:19:03;9.30;99.90
39099;DHT22;24844;52.380;7.018;2022-09-25T02:26:55;9.20;99.90
39099;DHT22;24844;52.380;7.018;2022-09-25T02:29:20;9.20;99.90
39099;DHT22;24844;52.380;7.018;2022-09-25T02:34:18;9.10;99.90
39099;DHT22;24844;52.380;7.018;2022-09-25T02:36:44;9.00;99.90
39099;DHT22;24844;52.380;7.018;2022-09-25T02:39:10;9.00;99.90
39099;DHT22;24844;52.380;7.018;2022-09-25T02:41:54;9.00;99.90
39099;DHT22;24844;52.380;7.018;2022-09-25T02:44:41;9.00;99.90
39099;DHT22;24844;52.380;7.018;2022-09-25T02:47:23;8.90;99.90
39099;DHT22;24844;52.380;7.018;2022-09-25T02:50:13;8.90;99.90
39099;DHT22;24844;52.380;7.018;2022-09-25T02:52:58;8.80;99.90
39099;DHT22;24844;52.380;7.018;2022-09-25T02:58:26;8.80;99.90
39099;DHT22;24844;52.380;7.018;2022-09-25T03:00:54;8.70;99.90
39099;DHT22;24844;52.380;7.018;2022-09-25T03:03:23;8.70;99.90
39099;DHT22;24844;52.380;7.018;2022-09-25T03:05:53;8.70;99.90
39099;DHT22;24844;52.380;7.018;2022-09-25T03:08:21;8.60;99.90
39099;DHT22;24844;52.380;7.018;2022-09-25T03:11:06;8.60;99.90
39099;DHT22;24844;52.380;7.018;2022-09-25T03:13:33;8.60;99.90
39099;DHT22;24844;52.380;7.018;2022-09-25T03:16:15;8.60;99.90
39099;DHT22;24844;52.380;7.018;2022-09-25T03:18:43;8.50;99.90
39099;DHT22;24844;52.380;7.018;2022-09-25T03:21:10;8.50;99.90
39099;DHT22;24844;52.380;7.018;2022-09-25T03:23:35;8.50;99.90
39099;DHT22;24844;52.380;7.018;2022-09-25T03:26:01;8.50;99.90
39099;DHT22;24844;52.380;7.018;2022-09-25T03:28:29;8.40;99.90
39099;DHT22;24844;52.380;7.018;2022-09-25T03:31:03;8.50;99.90
39099;DHT22;24844;52.380;7.018;2022-09-25T03:33:37;8.50;99.90
39099;DHT22;24844;52.380;7.018;2022-09-25T03:36:04;8.40;99.90
39099;DHT22;24844;52.380;7.018;2022-09-25T03:38:30;8.40;99.90
39099;DHT22;24844;52.380;7.018;2022-09-25T03:40:55;8.40;99.90
39099;DHT22;24844;52.380;7.018;2022-09-25T03:43:21;8.30;99.90
39099;DHT22;24844;52.380;7.018;2022-09-25T03:45:47;8.30;99.90
39099;DHT22;24844;52.380;7.018;2022-09-25T03:48:12;8.30;99.90
39099;DHT22;24844;52.380;7.018;2022-09-25T03:50:38;8.30;99.90
39099;DHT22;24844;52.380;7.018;2022-09-25T03:53:04;8.30;99.90
39099;DHT22;24844;52.380;7.018;2022-09-25T03:55:29;8.30;99.90
39099;DHT22;24844;52.380;7.018;2022-09-25T03:57:55;8.30;99.90
39099;DHT22;24844;52.380;7.018;2022-09-25T04:00:20;8.30;99.90
39099;DHT22;24844;52.380;7.018;2022-09-25T04:02:48;8.30;99.90
39099;DHT22;24844;52.380;7.018;2022-09-25T04:05:15;8.20;99.90
39099;DHT22;24844;52.380;7.018;2022-09-25T04:07:41;8.20;99.90
39099;DHT22;24844;52.380;7.018;2022-09-25T04:10:07;8.20;99.90
39099;DHT22;24844;52.380;7.018;2022-09-25T04:12:32;8.10;99.90
39099;DHT22;24844;52.380;7.018;2022-09-25T04:14:58;8.10;99.90
39099;DHT22;24844;52.380;7.018;2022-09-25T04:17:23;8.10;99.90
39099;DHT22;24844;52.380;7.018;2022-09-25T04:19:49;8.10;99.90
39099;DHT22;24844;52.380;7.018;2022-09-25T04:22:16;8.10;99.90
39099;DHT22;24844;52.380;7.018;2022-09-25T04:24:42;8.10;99.90
39099;DHT22;24844;52.380;7.018;2022-09-25T04:27:17;8.10;99.90
39099;DHT22;24844;52.380;7.018;2022-09-25T04:29:45;8.10;99.90
39099;DHT22;24844;52.380;7.018;2022-09-25T04:32:11;8.20;99.90
39099;DHT22;24844;52.380;7.018;2022-09-25T04:34:55;8.00;99.90
39099;DHT22;24844;52.380;7.018;2022-09-25T04:37:22;8.00;99.90
39099;DHT22;24844;52.380;7.018;2022-09-25T04:39:51;8.00;99.90
39099;DHT22;24844;52.380;7.018;2022-09-25T04:42:17;7.90;99.90
39099;DHT22;24844;52.380;7.018;2022-09-25T04:44:49;7.90;99.90
39099;DHT22;24844;52.380;7.018;2022-09-25T04:47:14;7.90;99.90
39099;DHT22;24844;52.380;7.018;2022-09-25T04:49:40;7.90;99.90
39099;DHT22;24844;52.380;7.018;2022-09-25T04:52:05;7.80;99.90
39099;DHT22;24844;52.380;7.018;2022-09-25T04:54:31;7.80;99.90
39099;DHT22;24844;52.380;7.018;2022-09-25T04:56:56;7.70;99.90
39099;DHT22;24844;52.380;7.018;2022-09-25T04:59:22;7.80;99.90
39099;DHT22;24844;52.380;7.018;2022-09-25T05:01:47;7.80;99.90
39099;DHT22;24844;52.380;7.018;2022-09-25T05:04:13;7.80;99.90
39099;DHT22;24844;52.380;7.018;2022-09-25T05:06:40;7.70;99.90
39099;DHT22;24844;52.380;7.018;2022-09-25T05:09:06;7.80;99.90
39099;DHT22;24844;52.380;7.018;2022-09-25T05:11:31;7.80;99.90
39099;DHT22;24844;52.380;7.018;2022-09-25T05:13:57;7.70;99.90
39099;DHT22;24844;52.380;7.018;2022-09-25T05:16:23;7.70;99.90
39099;DHT22;24844;52.380;7.018;2022-09-25T05:18:48;7.60;99.90
39099;DHT22;24844;52.380;7.018;2022-09-25T05:21:14;7.60;99.90
39099;DHT22;24844;52.380;7.018;2022-09-25T05:23:40;7.60;99.90
39099;DHT22;24844;52.380;7.018;2022-09-25T05:26:05;7.60;99.90
39099;DHT22;24844;52.380;7.018;2022-09-25T05:28:31;7.60;99.90
39099;DHT22;24844;52.380;7.018;2022-09-25T05:31:01;7.60;99.90
39099;DHT22;24844;52.380;7.018;2022-09-25T05:33:28;7.60;99.90
39099;DHT22;24844;52.380;7.018;2022-09-25T05:35:54;7.50;99.90
39099;DHT22;24844;52.380;7.018;2022-09-25T05:38:19;7.50;99.90
39099;DHT22;24844;52.380;7.018;2022-09-25T05:40:45;7.60;99.90
39099;DHT22;24844;52.380;7.018;2022-09-25T05:43:10;7.70;99.90
39099;DHT22;24844;52.380;7.018;2022-09-25T05:45:39;7.70;99.90
39099;DHT22;24844;52.380;7.018;2022-09-25T05:48:06;7.70;99.90
39099;DHT22;24844;52.380;7.018;2022-09-25T05:50:32;7.70;99.90
39099;DHT22;24844;52.380;7.018;2022-09-25T05:52:59;7.70;99.90
39099;DHT22;24844;52.380;7.018;2022-09-25T05:55:25;7.80;99.90
39099;DHT22;24844;52.380;7.018;2022-09-25T05:57:51;7.80;99.90
39099;DHT22;24844;52.380;7.018;2022-09-25T06:00:17;7.90;99.90
39099;DHT22;24844;52.380;7.018;2022-09-25T06:02:43;7.90;99.90
39099;DHT22;24844;52.380;7.018;2022-09-25T06:05:09;8.00;99.90
39099;DHT22;24844;52.380;7.018;2022-09-25T06:07:35;8.00;99.90
39099;DHT22;24844;52.380;7.018;2022-09-25T06:10:02;8.10;99.90
39099;DHT22;24844;52.380;7.018;2022-09-25T06:12:29;8.20;99.90
39099;DHT22;24844;52.380;7.018;2022-09-25T06:14:54;8.20;99.90
39099;DHT22;24844;52.380;7.018;2022-09-25T06:17:20;8.30;99.90
39099;DHT22;24844;52.380;7.018;2022-09-25T06:19:46;8.40;99.90
39099;DHT22;24844;52.380;7.018;2022-09-25T06:22:12;8.40;99.90
39099;DHT22;24844;52.380;7.018;2022-09-25T06:24:38;8.50;99.90
39099;DHT22;24844;52.380;7.018;2022-09-25T06:27:05;8.60;99.90
39099;DHT22;24844;52.380;7.018;2022-09-25T06:29:31;8.60;99.90
39099;DHT22;24844;52.380;7.018;2022-09-25T06:31:56;8.70;99.90
39099;DHT22;24844;52.380;7.018;2022-09-25T06:34:22;8.80;99.90
39099;DHT22;24844;52.380;7.018;2022-09-25T06:36:48;8.80;99.90
39099;DHT22;24844;52.380;7.018;2022-09-25T06:39:13;8.90;99.90
39099;DHT22;24844;52.380;7.018;2022-09-25T06:41:39;8.90;99.90
39099;DHT22;24844;52.380;7.018;2022-09-25T06:44:05;9.00;99.90
39099;DHT22;24844;52.380;7.018;2022-09-25T06:46:33;9.10;99.90
39099;DHT22;24844;52.380;7.018;2022-09-25T06:48:59;9.20;99.90
39099;DHT22;24844;52.380;7.018;2022-09-25T06:51:25;9.30;99.90
39099;DHT22;24844;52.380;7.018;2022-09-25T06:53:57;9.30;99.90
39099;DHT22;24844;52.380;7.018;2022-09-25T06:56:23;9.50;99.90
39099;DHT22;24844;52.380;7.018;2022-09-25T06:58:49;9.60;99.90
39099;DHT22;24844;52.380;7.018;2022-09-25T07:01:15;9.70;99.90
39099;DHT22;24844;52.380;7.018;2022-09-25T07:03:40;9.60;99.90
39099;DHT22;24844;52.380;7.018;2022-09-25T07:06:14;9.70;99.90
39099;DHT22;24844;52.380;7.018;2022-09-25T07:08:40;9.80;99.90
39099;DHT22;24844;52.380;7.018;2022-09-25T07:11:11;9.90;99.90
39099;DHT22;24844;52.380;7.018;2022-09-25T07:13:37;10.00;99.90
39099;DHT22;24844;52.380;7.018;2022-09-25T07:16:10;10.20;99.90
39099;DHT22;24844;52.380;7.018;2022-09-25T07:18:37;10.30;99.90
39099;DHT22;24844;52.380;7.018;2022-09-25T07:21:07;10.30;99.90
39099;DHT22;24844;52.380;7.018;2022-09-25T07:23:34;10.40;99.90
39099;DHT22;24844;52.380;7.018;2022-09-25T07:26:05;10.50;99.90
39099;DHT22;24844;52.380;7.018;2022-09-25T07:28:31;10.70;99.90
39099;DHT22;24844;52.380;7.018;2022-09-25T07:30:57;10.70;99.90
39099;DHT22;24844;52.380;7.018;2022-09-25T07:33:22;10.80;99.90
39099;DHT22;24844;52.380;7.018;2022-09-25T07:35:52;11.00;99.90
39099;DHT22;24844;52.380;7.018;2022-09-25T07:38:18;11.10;99.90
39099;DHT22;24844;52.380;7.018;2022-09-25T07:40:43;11.10;99.90
39099;DHT22;24844;52.380;7.018;2022-09-25T07:43:10;11.30;99.90
39099;DHT22;24844;52.380;7.018;2022-09-25T07:45:35;11.40;99.90
39099;DHT22;24844;52.380;7.018;2022-09-25T07:48:02;11.60;99.90
39099;DHT22;24844;52.380;7.018;2022-09-25T07:50:29;11.80;99.90
39099;DHT22;24844;52.380;7.018;2022-09-25T07:52:55;12.10;99.90
39099;DHT22;24844;52.380;7.018;2022-09-25T07:55:21;12.30;99.90
39099;DHT22;24844;52.380;7.018;2022-09-25T07:57:47;12.60;99.90
39099;DHT22;24844;52.380;7.018;2022-09-25T08:00:15;13.00;99.90
39099;DHT22;24844;52.380;7.018;2022-09-25T08:02:41;13.90;99.90
39099;DHT22;24844;52.380;7.018;2022-09-25T08:05:07;14.90;99.90
39099;DHT22;24844;52.380;7.018;2022-09-25T08:07:33;16.00;99.90
39099;DHT22;24844;52.380;7.018;2022-09-25T08:09:58;17.00;99.90
39099;DHT22;24844;52.380;7.018;2022-09-25T08:12:24;17.90;99.90
39099;DHT22;24844;52.380;7.018;2022-09-25T08:14:50;18.60;99.90
39099;DHT22;24844;52.380;7.018;2022-09-25T08:17:16;19.30;99.90
39099;DHT22;24844;52.380;7.018;2022-09-25T08:19:44;19.60;99.90
39099;DHT22;24844;52.380;7.018;2022-09-25T08:22:09;20.20;99.90
39099;DHT22;24844;52.380;7.018;2022-09-25T08:24:35;20.50;99.90
39099;DHT22;24844;52.380;7.018;2022-09-25T08:27:02;20.80;99.90
39099;DHT22;24844;52.380;7.018;2022-09-25T08:29:28;21.00;99.90
39099;DHT22;24844;52.380;7.018;2022-09-25T08:31:54;21.30;99.90
39099;DHT22;24844;52.380;7.018;2022-09-25T08:34:20;21.30;99.90
39099;DHT22;24844;52.380;7.018;2022-09-25T08:36:47;21.60;99.90
39099;DHT22;24844;52.380;7.018;2022-09-25T08:39:14;21.70;99.90
39099;DHT22;24844;52.380;7.018;2022-09-25T08:41:54;22.20;99.90
39099;DHT22;24844;52.380;7.018;2022-09-25T08:46:56;22.50;99.90
39099;DHT22;24844;52.380;7.018;2022-09-25T08:49:46;22.50;99.90
39099;DHT22;24844;52.380;7.018;2022-09-25T08:52:16;22.70;99.90
39099;DHT22;24844;52.380;7.018;2022-09-25T08:54:43;23.10;99.90
39099;DHT22;24844;52.380;7.018;2022-09-25T08:57:31;23.10;99.90
39099;DHT22;24844;52.380;7.018;2022-09-25T09:00:19;24.00;99.90
39099;DHT22;24844;52.380;7.018;2022-09-25T09:02:50;23.60;98.80
39099;DHT22;24844;52.380;7.018;2022-09-25T09:05:24;24.40;99.90
39099;DHT22;24844;52.380;7.018;2022-09-25T09:08:19;25.00;99.80
39099;DHT22;24844;52.380;7.018;2022-09-25T09:10:58;25.50;99.90
39099;DHT22;24844;52.380;7.018;2022-09-25T09:13:41;26.00;99.90
39099;DHT22;24844;52.380;7.018;2022-09-25T09:16:29;26.50;99.90
39099;DHT22;24844;52.380;7.018;2022-09-25T09:19:00;26.50;97.00
39099;DHT22;24844;52.380;7.018;2022-09-25T09:24:04;26.50;96.10
39099;DHT22;24844;52.380;7.018;2022-09-25T09:34:51;23.60;97.30
39099;DHT22;24844;52.380;7.018;2022-09-25T09:37:27;23.00;97.70
39099;DHT22;24844;52.380;7.018;2022-09-25T09:45:43;21.00;99.90
39099;DHT22;24844;52.380;7.018;2022-09-25T09:48:30;21.40;98.10
39099;DHT22;24844;52.380;7.018;2022-09-25T09:51:17;20.70;99.90
39099;DHT22;24844;52.380;7.018;2022-09-25T09:54:06;20.50;99.90
39099;DHT22;24844;52.380;7.018;2022-09-25T09:56:33;20.50;99.90
39099;DHT22;24844;52.380;7.018;2022-09-25T09:59:08;20.50;99.90
39099;DHT22;24844;52.380;7.018;2022-09-25T10:01:38;20.40;99.90
39099;DHT22;24844;52.380;7.018;2022-09-25T10:04:13;20.60;99.90
39099;DHT22;24844;52.380;7.018;2022-09-25T10:06:48;20.20;99.90
39099;DHT22;24844;52.380;7.018;2022-09-25T10:09:16;20.40;99.90
39099;DHT22;24844;52.380;7.018;2022-09-25T10:11:43;20.70;99.90
39099;DHT22;24844;52.380;7.018;2022-09-25T10:14:15;20.90;99.90
39099;DHT22;24844;52.380;7.018;2022-09-25T10:16:43;21.00;99.90
39099;DHT22;24844;52.380;7.018;2022-09-25T10:19:15;21.50;99.90
39099;DHT22;24844;52.380;7.018;2022-09-25T10:21:53;21.80;99.90
39099;DHT22;24844;52.380;7.018;2022-09-25T10:24:47;22.10;99.90
39099;DHT22;24844;52.380;7.018;2022-09-25T10:27:33;22.50;97.60
39099;DHT22;24844;52.380;7.018;2022-09-25T10:32:47;21.40;97.90
39099;DHT22;24844;52.380;7.018;2022-09-25T10:35:26;20.40;99.70
39099;DHT22;24844;52.380;7.018;2022-09-25T10:37:54;20.80;99.90
39099;DHT22;24844;52.380;7.018;2022-09-25T10:40:48;22.00;98.00
39099;DHT22;24844;52.380;7.018;2022-09-25T10:43:21;23.60;99.90
39099;DHT22;24844;52.380;7.018;2022-09-25T10:46:04;25.40;94.50
39099;DHT22;24844;52.380;7.018;2022-09-25T10:48:37;25.90;96.90
39099;DHT22;24844;52.380;7.018;2022-09-25T10:51:21;26.80;93.30
39099;DHT22;24844;52.380;7.018;2022-09-25T10:53:49;27.40;91.00
39099;DHT22;24844;52.380;7.018;2022-09-25T10:56:21;27.70;88.30
39099;DHT22;24844;52.380;7.018;2022-09-25T10:58:56;28.10;87.70
39099;DHT22;24844;52.380;7.018;2022-09-25T11:01:37;28.70;85.50
39099;DHT22;24844;52.380;7.018;2022-09-25T11:06:48;28.50;86.50
39099;DHT22;24844;52.380;7.018;2022-09-25T11:09:19;26.90;84.20
39099;DHT22;24844;52.380;7.018;2022-09-25T11:11:46;25.90;83.50
39099;DHT22;24844;52.380;7.018;2022-09-25T11:14:20;24.00;86.40
39099;DHT22;24844;52.380;7.018;2022-09-25T11:27:25;20.40;86.60
39099;DHT22;24844;52.380;7.018;2022-09-25T11:30:16;20.20;89.70
39099;DHT22;24844;52.380;7.018;2022-09-25T11:35:39;19.60;90.70
39099;DHT22;24844;52.380;7.018;2022-09-25T11:41:28;20.00;88.90
39099;DHT22;24844;52.380;7.018;2022-09-25T11:50:02;20.10;91.00
39099;DHT22;24844;52.380;7.018;2022-09-25T11:52:36;20.30;91.20
39099;DHT22;24844;52.380;7.018;2022-09-25T11:55:47;20.50;90.80
39099;DHT22;24844;52.380;7.018;2022-09-25T12:01:01;20.60;90.70
39099;DHT22;24844;52.380;7.018;2022-09-25T12:03:59;20.50;91.40
39099;DHT22;24844;52.380;7.018;2022-09-25T12:14:48;19.00;94.20
39099;DHT22;24844;52.380;7.018;2022-09-25T12:32:02;17.90;97.20
39099;DHT22;24844;52.380;7.018;2022-09-25T12:39:58;18.10;97.20
39099;DHT22;24844;52.380;7.018;2022-09-25T12:42:39;18.10;97.10
39099;DHT22;24844;52.380;7.018;2022-09-25T12:45:18;18.00;97.10
39099;DHT22;24844;52.380;7.018;2022-09-25T12:50:25;18.20;97.60
39099;DHT22;24844;52.380;7.018;2022-09-25T12:55:28;18.10;96.80
39099;DHT22;24844;52.380;7.018;2022-09-25T12:58:28;18.20;96.80
39099;DHT22;24844;52.380;7.018;2022-09-25T13:01:09;18.10;97.60
39099;DHT22;24844;52.380;7.018;2022-09-25T13:06:40;18.10;97.20
39099;DHT22;24844;52.380;7.018;2022-09-25T13:09:31;18.20;97.20
39099;DHT22;24844;52.380;7.018;2022-09-25T13:14:32;18.40;97.00
39099;DHT22;24844;52.380;7.018;2022-09-25T13:17:00;18.40;96.90
39099;DHT22;24844;52.380;7.018;2022-09-25T13:19:28;18.50;96.50
39099;DHT22;24844;52.380;7.018;2022-09-25T13:21:59;18.50;96.80
39099;DHT22;24844;52.380;7.018;2022-09-25T13:24:25;18.50;97.10
39099;DHT22;24844;52.380;7.018;2022-09-25T13:26:53;18.60;96.90
39099;DHT22;24844;52.380;7.018;2022-09-25T13:29:27;18.60;96.60
39099;DHT22;24844;52.380;7.018;2022-09-25T13:32:24;18.70;96.70
39099;DHT22;24844;52.380;7.018;2022-09-25T13:34:55;18.90;96.70
39099;DHT22;24844;52.380;7.018;2022-09-25T13:37:29;18.80;96.50
39099;DHT22;24844;52.380;7.018;2022-09-25T13:39:57;18.80;96.20
39099;DHT22;24844;52.380;7.018;2022-09-25T13:42:43;19.00;95.90
39099;DHT22;24844;52.380;7.018;2022-09-25T13:45:25;19.20;95.30
39099;DHT22;24844;52.380;7.018;2022-09-25T13:58:57;18.80;95.40
39099;DHT22;24844;52.380;7.018;2022-09-25T14:01:39;18.60;95.80
39099;DHT22;24844;52.380;7.018;2022-09-25T14:06:46;18.70;95.40
39099;DHT22;24844;52.380;7.018;2022-09-25T14:09:18;18.70;95.10
39099;DHT22;24844;52.380;7.018;2022-09-25T14:14:46;18.80;95.40
39099;DHT22;24844;52.380;7.018;2022-09-25T14:17:22;18.70;95.50
39099;DHT22;24844;52.380;7.018;2022-09-25T14:19:51;18.50;95.90
39099;DHT22;24844;52.380;7.018;2022-09-25T14:24:57;18.70;97.30
39099;DHT22;24844;52.380;7.018;2022-09-25T14:27:25;18.70;95.60
39099;DHT22;24844;52.380;7.018;2022-09-25T14:30:02;18.60;94.90
39099;DHT22;24844;52.380;7.018;2022-09-25T14:32:45;18.70;93.90
39099;DHT22;24844;52.380;7.018;2022-09-25T14:35:22;19.00;94.90
39099;DHT22;24844;52.380;7.018;2022-09-25T14:40:33;18.90;94.80
39099;DHT22;24844;52.380;7.018;2022-09-25T14:45:35;19.00;95.10
39099;DHT22;24844;52.380;7.018;2022-09-25T14:48:05;19.20;94.70
39099;DHT22;24844;52.380;7.018;2022-09-25T14:50:38;19.00;95.10
39099;DHT22;24844;52.380;7.018;2022-09-25T14:53:12;19.00;95.00
39099;DHT22;24844;52.380;7.018;2022-09-25T14:55:45;19.00;95.60
39099;DHT22;24844;52.380;7.018;2022-09-25T14:58:17;19.00;95.80
39099;DHT22;24844;52.380;7.018;2022-09-25T15:00:49;19.20;95.60
39099;DHT22;24844;52.380;7.018;2022-09-25T15:03:19;19.10;95.50
39099;DHT22;24844;52.380;7.018;2022-09-25T15:05:47;18.70;96.20
39099;DHT22;24844;52.380;7.018;2022-09-25T15:11:03;18.70;94.40
39099;DHT22;24844;52.380;7.018;2022-09-25T15:13:33;18.60;94.60
39099;DHT22;24844;52.380;7.018;2022-09-25T15:15:59;18.40;94.50
39099;DHT22;24844;52.380;7.018;2022-09-25T15:18:49;18.30;94.40
39099;DHT22;24844;52.380;7.018;2022-09-25T15:21:39;18.20;93.90
39099;DHT22;24844;52.380;7.018;2022-09-25T15:24:14;18.50;93.40
39099;DHT22;24844;52.380;7.018;2022-09-25T15:26:55;18.40;93.70
39099;DHT22;24844;52.380;7.018;2022-09-25T15:29:27;18.30;94.10
39099;DHT22;24844;52.380;7.018;2022-09-25T15:31:52;18.10;93.20
39099;DHT22;24844;52.380;7.018;2022-09-25T15:34:28;18.40;93.10
39099;DHT22;24844;52.380;7.018;2022-09-25T15:39:51;18.30;93.40
39099;DHT22;24844;52.380;7.018;2022-09-25T15:42:17;18.30;94.10
39099;DHT22;24844;52.380;7.018;2022-09-25T15:44:43;18.20;94.20
39099;DHT22;24844;52.380;7.018;2022-09-25T15:47:48;18.30;94.60
39099;DHT22;24844;52.380;7.018;2022-09-25T15:50:24;18.60;93.30
39099;DHT22;24844;52.380;7.018;2022-09-25T15:52:53;18.70;94.00
39099;DHT22;24844;52.380;7.018;2022-09-25T15:55:20;19.00;94.30
39099;DHT22;24844;52.380;7.018;2022-09-25T15:57:47;19.20;93.50
39099;DHT22;24844;52.380;7.018;2022-09-25T16:00:22;19.30;94.10
39099;DHT22;24844;52.380;7.018;2022-09-25T16:03:17;19.20;94.60
39099;DHT22;24844;52.380;7.018;2022-09-25T16:06:02;18.90;94.60
39099;DHT22;24844;52.380;7.018;2022-09-25T16:08:33;18.60;94.70
39099;DHT22;24844;52.380;7.018;2022-09-25T16:11:22;18.40;94.90
39099;DHT22;24844;52.380;7.018;2022-09-25T16:13:51;18.10;95.90
39099;DHT22;24844;52.380;7.018;2022-09-25T16:16:20;17.90;95.30
39099;DHT22;24844;52.380;7.018;2022-09-25T16:18:47;17.90;95.40
39099;DHT22;24844;52.380;7.018;2022-09-25T16:21:22;17.70;95.90
39099;DHT22;24844;52.380;7.018;2022-09-25T16:24:00;17.50;96.70
39099;DHT22;24844;52.380;7.018;2022-09-25T16:26:41;17.30;97.20
39099;DHT22;24844;52.380;7.018;2022-09-25T16:29:19;17.30;97.70
39099;DHT22;24844;52.380;7.018;2022-09-25T16:31:46;17.20;98.30
39099;DHT22;24844;52.380;7.018;2022-09-25T16:34:31;17.10;98.30
39099;DHT22;24844;52.380;7.018;2022-09-25T16:37:04;17.10;99.20
39099;DHT22;24844;52.380;7.018;2022-09-25T16:39:37;16.90;99.00
39099;DHT22;24844;52.380;7.018;2022-09-25T16:44:48;16.80;99.20
39099;DHT22;24844;52.380;7.018;2022-09-25T16:47:18;16.60;99.00
39099;DHT22;24844;52.380;7.018;2022-09-25T16:49:48;16.60;98.90
39099;DHT22;24844;52.380;7.018;2022-09-25T16:52:21;16.30;99.80
39099;DHT22;24844;52.380;7.018;2022-09-25T16:54:52;16.20;99.90
39099;DHT22;24844;52.380;7.018;2022-09-25T16:57:23;16.10;99.90
39099;DHT22;24844;52.380;7.018;2022-09-25T16:59:50;16.00;99.90
39099;DHT22;24844;52.380;7.018;2022-09-25T17:02:37;16.00;99.90
39099;DHT22;24844;52.380;7.018;2022-09-25T17:05:12;15.90;99.90
39099;DHT22;24844;52.380;7.018;2022-09-25T17:07:43;15.80;99.90
39099;DHT22;24844;52.380;7.018;2022-09-25T17:10:12;15.80;99.90
39099;DHT22;24844;52.380;7.018;2022-09-25T17:12:39;15.80;99.90
39099;DHT22;24844;52.380;7.018;2022-09-25T17:15:08;15.80;99.90
39099;DHT22;24844;52.380;7.018;2022-09-25T17:17:37;15.90;99.90
39099;DHT22;24844;52.380;7.018;2022-09-25T17:20:03;15.90;99.90
39099;DHT22;24844;52.380;7.018;2022-09-25T17:22:29;15.90;99.90
39099;DHT22;24844;52.380;7.018;2022-09-25T17:24:58;16.00;99.90
39099;DHT22;24844;52.380;7.018;2022-09-25T17:27:25;15.80;99.90
39099;DHT22;24844;52.380;7.018;2022-09-25T17:29:50;15.80;99.90
39099;DHT22;24844;52.380;7.018;2022-09-25T17:32:16;15.80;99.90
39099;DHT22;24844;52.380;7.018;2022-09-25T17:34:44;15.80;99.90
39099;DHT22;24844;52.380;7.018;2022-09-25T17:37:10;15.70;99.90
39099;DHT22;24844;52.380;7.018;2022-09-25T17:39:36;15.60;99.90
39099;DHT22;24844;52.380;7.018;2022-09-25T17:42:03;15.50;99.90
39099;DHT22;24844;52.380;7.018;2022-09-25T17:44:28;15.50;99.90
39099;DHT22;24844;52.380;7.018;2022-09-25T17:46:54;15.40;99.90
39099;DHT22;24844;52.380;7.018;2022-09-25T17:49:21;15.30;99.90
39099;DHT22;24844;52.380;7.018;2022-09-25T17:51:48;15.20;99.90
39099;DHT22;24844;52.380;7.018;2022-09-25T17:54:13;15.10;99.90
39099;DHT22;24844;52.380;7.018;2022-09-25T17:56:42;15.00;99.90
39099;DHT22;24844;52.380;7.018;2022-09-25T17:59:10;14.90;99.90
39099;DHT22;24844;52.380;7.018;2022-09-25T18:01:36;14.70;99.90
39099;DHT22;24844;52.380;7.018;2022-09-25T18:04:21;14.60;99.90
39099;DHT22;24844;52.380;7.018;2022-09-25T18:06:47;14.60;99.90
39099;DHT22;24844;52.380;7.018;2022-09-25T18:09:13;14.40;99.90
39099;DHT22;24844;52.380;7.018;2022-09-25T18:11:39;14.30;99.90
39099;DHT22;24844;52.380;7.018;2022-09-25T18:14:12;14.20;99.90
39099;DHT22;24844;52.380;7.018;2022-09-25T18:16:41;14.10;99.90
39099;DHT22;24844;52.380;7.018;2022-09-25T18:19:17;14.00;99.90
39099;DHT22;24844;52.380;7.018;2022-09-25T18:22:02;13.90;99.90
39099;DHT22;24844;52.380;7.018;2022-09-25T18:24:44;13.70;99.90